sensor_id;sensor_type;location;lat;lon;timestamp;temperature;humidity
1958;DHT22;979;51.076;13.748;2023-12-20T05:25:36;7.80;91.90
1958;DHT22;979;51.076;13.748;2023-12-20T05:28:40;7.80;92.00
1958;DHT22;979;51.076;13.748;2023-12-20T05:31:55;7.70;91.90
1958;DHT22;979;51.076;13.748;2023-12-20T05:34:51;7.70;92.20
1958;DHT22;979;51.076;13.748;2023-12-20T05:37:51;7.70;92.30
1958;DHT22;979;51.076;13.748;2023-12-20T05:40:59;7.80;92.50
1958;DHT22;979;51.076;13.748;2023-12-20T05:43:49;7.80;92.70
1958;DHT22;979;51.076;13.748;2023-12-20T05:46:45;7.70;92.80
1958;DHT22;979;51.076;13.748;2023-12-20T05:49:29;7.90;92.90
1958;DHT22;979;51.076;13.748;2023-12-20T05:52:58;7.90;92.80
1958;DHT22;979;51.076;13.748;2023-12-20T05:55:33;7.90;92.70
1958;DHT22;979;51.076;13.748;2023-12-20T05:58:16;8.00;92.80
1958;DHT22;979;51.076;13.748;2023-12-20T06:03:48;7.90;92.90
1958;DHT22;979;51.076;13.748;2023-12-20T06:06:22;8.00;93.00
1958;DHT22;979;51.076;13.748;2023-12-20T06:09:08;7.90;93.00
1958;DHT22;979;51.076;13.748;2023-12-20T06:11:37;8.00;93.00
1958;DHT22;979;51.076;13.748;2023-12-20T06:14:12;8.00;93.20
1958;DHT22;979;51.076;13.748;2023-12-20T06:16:46;8.00;93.30
1958;DHT22;979;51.076;13.748;2023-12-20T06:19:18;8.00;93.30
1958;DHT22;979;51.076;13.748;2023-12-20T06:21:54;8.00;93.20
1958;DHT22;979;51.076;13.748;2023-12-20T06:24:30;8.00;93.10
1958;DHT22;979;51.076;13.748;2023-12-20T06:27:04;8.00;93.30
1958;DHT22;979;51.076;13.748;2023-12-20T06:29:44;8.00;93.40
1958;DHT22;979;51.076;13.748;2023-12-20T06:32:20;7.80;93.30
1958;DHT22;979;51.076;13.748;2023-12-20T06:34:58;8.00;93.30
1958;DHT22;979;51.076;13.748;2023-12-20T06:37:36;7.90;93.40
1958;DHT22;979;51.076;13.748;2023-12-20T06:40:12;8.00;93.50
1958;DHT22;979;51.076;13.748;2023-12-20T06:43:07;8.00;93.60
1958;DHT22;979;51.076;13.748;2023-12-20T06:46:11;8.00;93.50
1958;DHT22;979;51.076;13.748;2023-12-20T06:48:42;7.90;93.50
1958;DHT22;979;51.076;13.748;2023-12-20T06:51:15;7.90;93.60
1958;DHT22;979;51.076;13.748;2023-12-20T06:53:53;7.90;93.90
1958;DHT22;979;51.076;13.748;2023-12-20T06:56:26;7.90;93.90
1958;DHT22;979;51.076;13.748;2023-12-20T06:58:55;7.80;94.10
1958;DHT22;979;51.076;13.748;2023-12-20T07:01:32;7.90;94.40
1958;DHT22;979;51.076;13.748;2023-12-20T07:04:06;7.80;94.30
1958;DHT22;979;51.076;13.748;2023-12-20T07:06:41;7.80;94.50
1958;DHT22;979;51.076;13.748;2023-12-20T07:09:10;7.80;94.70
1958;DHT22;979;51.076;13.748;2023-12-20T07:11:53;7.80;94.90
1958;DHT22;979;51.076;13.748;2023-12-20T07:14:24;8.00;95.50
1958;DHT22;979;51.076;13.748;2023-12-20T07:16:58;7.80;95.50
1958;DHT22;979;51.076;13.748;2023-12-20T07:19:33;7.80;95.70
1958;DHT22;979;51.076;13.748;2023-12-20T07:22:01;7.90;95.80
1958;DHT22;979;51.076;13.748;2023-12-20T07:24:35;7.80;95.80
1958;DHT22;979;51.076;13.748;2023-12-20T07:27:13;7.80;95.90
1958;DHT22;979;51.076;13.748;2023-12-20T07:29:49;7.70;95.80
1958;DHT22;979;51.076;13.748;2023-12-20T07:32:22;7.90;96.00
1958;DHT22;979;51.076;13.748;2023-12-20T07:34:57;7.90;96.10
1958;DHT22;979;51.076;13.748;2023-12-20T07:37:33;7.90;95.90
1958;DHT22;979;51.076;13.748;2023-12-20T07:40:08;8.00;95.80
1958;DHT22;979;51.076;13.748;2023-12-20T07:42:43;8.00;95.70
1958;DHT22;979;51.076;13.748;2023-12-20T07:45:14;8.00;96.00
1958;DHT22;979;51.076;13.748;2023-12-20T07:47:44;8.10;95.60
1958;DHT22;979;51.076;13.748;2023-12-20T07:50:17;8.10;95.60
1958;DHT22;979;51.076;13.748;2023-12-20T07:52:48;8.00;95.40
1958;DHT22;979;51.076;13.748;2023-12-20T07:55:20;8.10;95.30
1958;DHT22;979;51.076;13.748;2023-12-20T07:57:54;8.10;95.00
1958;DHT22;979;51.076;13.748;2023-12-20T08:00:22;8.10;94.60
1958;DHT22;979;51.076;13.748;2023-12-20T08:03:00;8.00;94.30
1958;DHT22;979;51.076;13.748;2023-12-20T08:05:34;7.90;94.20
1958;DHT22;979;51.076;13.748;2023-12-20T08:08:11;7.90;94.20
1958;DHT22;979;51.076;13.748;2023-12-20T08:10:39;7.80;94.20
1958;DHT22;979;51.076;13.748;2023-12-20T08:13:10;7.80;94.20
1958;DHT22;979;51.076;13.748;2023-12-20T08:15:39;7.80;94.20
1958;DHT22;979;51.076;13.748;2023-12-20T08:18:16;7.80;94.50
1958;DHT22;979;51.076;13.748;2023-12-20T08:20:45;7.90;94.60
1958;DHT22;979;51.076;13.748;2023-12-20T08:23:15;8.00;94.50
1958;DHT22;979;51.076;13.748;2023-12-20T08:25:44;8.10;94.40
1958;DHT22;979;51.076;13.748;2023-12-20T08:28:13;8.20;94.10
1958;DHT22;979;51.076;13.748;2023-12-20T08:30:43;8.50;93.90
1958;DHT22;979;51.076;13.748;2023-12-20T08:33:12;8.30;93.50
1958;DHT22;979;51.076;13.748;2023-12-20T08:35:42;8.40;93.10
1958;DHT22;979;51.076;13.748;2023-12-20T08:38:11;8.50;92.80
1958;DHT22;979;51.076;13.748;2023-12-20T08:40:43;8.60;92.80
1958;DHT22;979;51.076;13.748;2023-12-20T08:43:12;8.70;92.50
1958;DHT22;979;51.076;13.748;2023-12-20T08:45:45;8.70;92.30
1958;DHT22;979;51.076;13.748;2023-12-20T08:48:16;8.70;91.90
1958;DHT22;979;51.076;13.748;2023-12-20T08:50:54;8.80;91.90
1958;DHT22;979;51.076;13.748;2023-12-20T08:53:23;8.80;91.80
1958;DHT22;979;51.076;13.748;2023-12-20T08:55:52;8.90;91.60
1958;DHT22;979;51.076;13.748;2023-12-20T08:58:28;8.90;91.50
1958;DHT22;979;51.076;13.748;2023-12-20T09:01:00;8.90;91.20
1958;DHT22;979;51.076;13.748;2023-12-20T09:03:29;8.90;90.90
1958;DHT22;979;51.076;13.748;2023-12-20T09:06:03;9.00;90.70
1958;DHT22;979;51.076;13.748;2023-12-20T09:08:32;8.90;90.30
1958;DHT22;979;51.076;13.748;2023-12-20T09:11:04;8.90;90.50
1958;DHT22;979;51.076;13.748;2023-12-20T09:13:32;8.90;90.20
1958;DHT22;979;51.076;13.748;2023-12-20T09:16:06;9.00;90.00
1958;DHT22;979;51.076;13.748;2023-12-20T09:18:41;9.10;89.40
1958;DHT22;979;51.076;13.748;2023-12-20T09:21:11;9.30;89.20
1958;DHT22;979;51.076;13.748;2023-12-20T09:23:40;9.40;88.40
1958;DHT22;979;51.076;13.748;2023-12-20T09:26:15;9.50;87.50
1958;DHT22;979;51.076;13.748;2023-12-20T09:28:44;9.50;86.50
1958;DHT22;979;51.076;13.748;2023-12-20T09:31:19;9.50;86.00
1958;DHT22;979;51.076;13.748;2023-12-20T09:33:58;9.40;85.10
1958;DHT22;979;51.076;13.748;2023-12-20T09:36:39;9.40;84.40
1958;DHT22;979;51.076;13.748;2023-12-20T09:39:13;9.40;84.00
1958;DHT22;979;51.076;13.748;2023-12-20T09:41:43;9.40;83.40
1958;DHT22;979;51.076;13.748;2023-12-20T09:44:15;9.40;83.40
1958;DHT22;979;51.076;13.748;2023-12-20T09:46:50;9.40;83.50
1958;DHT22;979;51.076;13.748;2023-12-20T09:49:21;9.50;83.40
1958;DHT22;979;51.076;13.748;2023-12-20T09:51:53;9.40;83.50
1958;DHT22;979;51.076;13.748;2023-12-20T09:54:28;9.50;83.30
1958;DHT22;979;51.076;13.748;2023-12-20T09:56:57;9.60;83.20
1958;DHT22;979;51.076;13.748;2023-12-20T09:59:26;9.70;83.10
1958;DHT22;979;51.076;13.748;2023-12-20T10:02:04;9.70;82.70
1958;DHT22;979;51.076;13.748;2023-12-20T10:04:40;9.70;82.20
1958;DHT22;979;51.076;13.748;2023-12-20T10:07:17;9.70;82.10
1958;DHT22;979;51.076;13.748;2023-12-20T10:09:52;9.70;81.70
1958;DHT22;979;51.076;13.748;2023-12-20T10:12:24;9.60;81.20
1958;DHT22;979;51.076;13.748;2023-12-20T10:14:57;9.60;80.90
1958;DHT22;979;51.076;13.748;2023-12-20T10:17:39;9.60;80.80
1958;DHT22;979;51.076;13.748;2023-12-20T10:20:15;9.60;80.40
1958;DHT22;979;51.076;13.748;2023-12-20T10:22:52;9.60;80.00
1958;DHT22;979;51.076;13.748;2023-12-20T10:25:22;9.60;79.90
1958;DHT22;979;51.076;13.748;2023-12-20T10:28:09;9.60;79.90
1958;DHT22;979;51.076;13.748;2023-12-20T10:30:42;9.60;79.60
1958;DHT22;979;51.076;13.748;2023-12-20T10:33:13;9.50;79.30
1958;DHT22;979;51.076;13.748;2023-12-20T10:35:51;9.50;79.20
1958;DHT22;979;51.076;13.748;2023-12-20T10:38:34;9.60;79.00
1958;DHT22;979;51.076;13.748;2023-12-20T10:41:09;9.40;78.70
1958;DHT22;979;51.076;13.748;2023-12-20T10:43:39;9.70;78.60
1958;DHT22;979;51.076;13.748;2023-12-20T10:46:08;9.60;78.40
1958;DHT22;979;51.076;13.748;2023-12-20T10:48:39;9.70;78.40
1958;DHT22;979;51.076;13.748;2023-12-20T10:51:11;9.70;78.10
1958;DHT22;979;51.076;13.748;2023-12-20T10:53:47;9.70;77.90
1958;DHT22;979;51.076;13.748;2023-12-20T10:56:18;9.80;77.50
1958;DHT22;979;51.076;13.748;2023-12-20T10:58:53;9.70;76.90
1958;DHT22;979;51.076;13.748;2023-12-20T11:01:35;9.80;76.40
1958;DHT22;979;51.076;13.748;2023-12-20T11:04:10;9.80;76.40
1958;DHT22;979;51.076;13.748;2023-12-20T11:06:52;9.70;76.10
1958;DHT22;979;51.076;13.748;2023-12-20T11:09:31;9.80;76.10
1958;DHT22;979;51.076;13.748;2023-12-20T11:12:06;9.90;76.30
1958;DHT22;979;51.076;13.748;2023-12-20T11:14:41;10.00;75.20
1958;DHT22;979;51.076;13.748;2023-12-20T11:17:14;10.10;74.80
1958;DHT22;979;51.076;13.748;2023-12-20T11:20:03;10.20;74.60
1958;DHT22;979;51.076;13.748;2023-12-20T11:22:33;10.20;73.70
1958;DHT22;979;51.076;13.748;2023-12-20T11:25:46;10.30;73.50
1958;DHT22;979;51.076;13.748;2023-12-20T11:28:21;10.30;73.00
1958;DHT22;979;51.076;13.748;2023-12-20T11:30:51;10.20;72.70
1958;DHT22;979;51.076;13.748;2023-12-20T11:33:25;10.10;73.20
1958;DHT22;979;51.076;13.748;2023-12-20T11:35:57;10.10;72.10
1958;DHT22;979;51.076;13.748;2023-12-20T17:53:49;8.50;71.10
1958;DHT22;979;51.076;13.748;2023-12-20T17:56:18;8.40;71.60
1958;DHT22;979;51.076;13.748;2023-12-20T17:58:47;8.30;71.70
1958;DHT22;979;51.076;13.748;2023-12-20T18:01:16;8.30;72.20
1958;DHT22;979;51.076;13.748;2023-12-20T18:32:08;7.90;75.40
1958;DHT22;979;51.076;13.748;2023-12-20T18:34:37;7.90;75.80
1958;DHT22;979;51.076;13.748;2023-12-20T18:37:05;7.80;75.90
1958;DHT22;979;51.076;13.748;2023-12-20T18:39:38;7.90;76.10
1958;DHT22;979;51.076;13.748;2023-12-20T18:42:07;7.90;76.20
1958;DHT22;979;51.076;13.748;2023-12-20T18:44:38;7.90;76.30
1958;DHT22;979;51.076;13.748;2023-12-20T18:47:09;7.80;76.60
1958;DHT22;979;51.076;13.748;2023-12-20T18:49:38;7.90;76.60
1958;DHT22;979;51.076;13.748;2023-12-20T18:52:06;7.80;76.70
1958;DHT22;979;51.076;13.748;2023-12-20T18:54:37;7.80;77.00
1958;DHT22;979;51.076;13.748;2023-12-20T18:57:08;7.70;77.00
1958;DHT22;979;51.076;13.748;2023-12-20T18:59:39;7.70;77.30
1958;DHT22;979;51.076;13.748;2023-12-20T19:02:21;7.80;78.60
1958;DHT22;979;51.076;13.748;2023-12-20T19:04:53;7.50;77.60
1958;DHT22;979;51.076;13.748;2023-12-20T19:07:22;7.70;77.80
1958;DHT22;979;51.076;13.748;2023-12-20T19:10:07;7.70;78.00
1958;DHT22;979;51.076;13.748;2023-12-20T19:12:39;7.50;78.00
1958;DHT22;979;51.076;13.748;2023-12-20T19:15:08;7.70;78.40
1958;DHT22;979;51.076;13.748;2023-12-20T19:17:39;7.60;78.30
1958;DHT22;979;51.076;13.748;2023-12-20T19:20:11;7.60;78.60
1958;DHT22;979;51.076;13.748;2023-12-20T19:22:40;7.60;78.70
1958;DHT22;979;51.076;13.748;2023-12-20T19:25:10;7.60;79.00
1958;DHT22;979;51.076;13.748;2023-12-20T19:27:41;7.60;78.90
1958;DHT22;979;51.076;13.748;2023-12-20T19:30:14;7.60;79.10
1958;DHT22;979;51.076;13.748;2023-12-20T19:32:49;7.60;79.40
1958;DHT22;979;51.076;13.748;2023-12-20T19:35:18;7.70;79.20
1958;DHT22;979;51.076;13.748;2023-12-20T19:37:46;7.90;79.80
1958;DHT22;979;51.076;13.748;2023-12-20T19:40:16;7.80;79.60
1958;DHT22;979;51.076;13.748;2023-12-20T19:42:46;7.70;79.90
1958;DHT22;979;51.076;13.748;2023-12-20T19:45:15;7.80;80.00
1958;DHT22;979;51.076;13.748;2023-12-20T19:47:49;7.80;79.90
1958;DHT22;979;51.076;13.748;2023-12-20T19:50:20;7.80;80.00
1958;DHT22;979;51.076;13.748;2023-12-20T19:52:54;8.00;80.10
1958;DHT22;979;51.076;13.748;2023-12-20T19:55:23;8.00;79.70
1958;DHT22;979;51.076;13.748;2023-12-20T22:01:30;8.60;78.50
1958;DHT22;979;51.076;13.748;2023-12-20T22:43:23;9.00;76.30
1958;DHT22;979;51.076;13.748;2023-12-20T22:45:52;9.00;76.50
1958;DHT22;979;51.076;13.748;2023-12-20T22:48:21;9.00;76.40
1958;DHT22;979;51.076;13.748;2023-12-20T22:50:50;9.00;76.60
1958;DHT22;979;51.076;13.748;2023-12-20T22:53:19;9.20;76.60
1958;DHT22;979;51.076;13.748;2023-12-20T22:55:50;9.00;76.40
1958;DHT22;979;51.076;13.748;2023-12-20T22:58:18;9.10;76.50
1958;DHT22;979;51.076;13.748;2023-12-20T23:00:48;8.90;76.40
1958;DHT22;979;51.076;13.748;2023-12-20T23:03:17;8.90;76.40
1958;DHT22;979;51.076;13.748;2023-12-20T23:05:47;8.90;76.40
1958;DHT22;979;51.076;13.748;2023-12-20T23:08:16;8.90;76.30
1958;DHT22;979;51.076;13.748;2023-12-20T23:10:44;8.90;76.30
1958;DHT22;979;51.076;13.748;2023-12-20T23:13:12;8.90;76.30
1958;DHT22;979;51.076;13.748;2023-12-20T23:15:43;9.00;76.30
1958;DHT22;979;51.076;13.748;2023-12-20T23:18:14;9.00;76.20
1958;DHT22;979;51.076;13.748;2023-12-20T23:20:43;9.20;76.20
1958;DHT22;979;51.076;13.748;2023-12-20T23:23:11;9.00;75.80
1958;DHT22;979;51.076;13.748;2023-12-20T23:25:40;9.00;76.20
1958;DHT22;979;51.076;13.748;2023-12-20T23:28:08;9.00;76.10
1958;DHT22;979;51.076;13.748;2023-12-20T23:30:37;9.00;76.20
1958;DHT22;979;51.076;13.748;2023-12-20T23:33:05;9.00;76.20
1958;DHT22;979;51.076;13.748;2023-12-20T23:35:35;9.00;76.30
1958;DHT22;979;51.076;13.748;2023-12-20T23:38:03;9.10;76.30
1958;DHT22;979;51.076;13.748;2023-12-20T23:40:34;9.00;76.20
1958;DHT22;979;51.076;13.748;2023-12-20T23:43:03;9.10;76.20
1958;DHT22;979;51.076;13.748;2023-12-20T23:45:31;9.10;76.00
1958;DHT22;979;51.076;13.748;2023-12-20T23:48:00;9.10;75.90
1958;DHT22;979;51.076;13.748;2023-12-20T23:50:29;9.10;76.00
1958;DHT22;979;51.076;13.748;2023-12-20T23:52:59;9.10;76.20
1958;DHT22;979;51.076;13.748;2023-12-20T23:55:27;9.10;76.40
1958;DHT22;979;51.076;13.748;2023-12-20T23:57:56;9.10;76.30
